Time,TemperatureF,DewpointF,PressureIn,WindDirection,WindDirectionDegrees,WindSpeedMPH,WindSpeedGustMPH,Humidity,HourlyPrecipIn,Conditions,Clouds,dailyrainin,SoftwareType,DateUTC
2013-02-10 01:00:00,54.0,-99.9,-100.00,East,80,9.0,-999.0,-999,-99.99,,,-99.99,,2013-02-10 06:00:00,
2013-02-10 01:42:00,54.0,-99.9,-100.00,East,80,9.0,-999.0,-999,-99.99,,,-99.99,,2013-02-10 06:42:00,
2013-02-10 01:52:00,54.0,-99.9,-100.00,East,80,9.0,-999.0,-999,-99.99,,,-99.99,,2013-02-10 06:52:00,
2013-02-10 02:00:00,54.0,-99.9,-100.00,East,80,11.0,-999.0,-999,-99.99,,,-99.99,,2013-02-10 07:00:00,
2013-02-10 02:42:00,54.0,-99.9,-100.00,East,80,11.0,-999.0,-999,-99.99,,,-99.99,,2013-02-10 07:42:00,
2013-02-10 02:52:00,54.0,-99.9,-100.00,East,80,11.0,-999.0,-999,-99.99,,,-99.99,,2013-02-10 07:52:00,
2013-02-10 04:00:00,54.0,-99.9,-100.00,East,80,9.0,-999.0,-999,-99.99,,,-99.99,,2013-02-10 09:00:00,
2013-02-10 04:42:00,54.0,-99.9,-100.00,East,80,9.0,-999.0,-999,-99.99,,,-99.99,,2013-02-10 09:42:00,
2013-02-10 04:52:00,54.0,-99.9,-100.00,East,80,9.0,-999.0,-999,-99.99,,,-99.99,,2013-02-10 09:52:00,
2013-02-10 05:00:00,55.0,-99.9,-100.00,East,100,11.0,-999.0,-999,-99.99,,,-99.99,,2013-02-10 10:00:00,
2013-02-10 05:42:00,55.0,-99.9,-100.00,East,100,11.0,-999.0,-999,-99.99,,,-99.99,,2013-02-10 10:42:00,
2013-02-10 05:52:00,55.0,-99.9,-100.00,East,100,11.0,-999.0,-999,-99.99,,,-99.99,,2013-02-10 10:52:00,
2013-02-10 06:00:00,56.0,-99.9,-100.00,East,100,11.0,-999.0,-999,-99.99,,,-99.99,,2013-02-10 11:00:00,
2013-02-10 06:42:00,56.0,-99.9,-100.00,East,100,11.0,-999.0,-999,-99.99,,,-99.99,,2013-02-10 11:42:00,
2013-02-10 06:52:00,56.0,-99.9,-100.00,East,100,11.0,-999.0,-999,-99.99,,,-99.99,,2013-02-10 11:52:00,
2013-02-10 07:00:00,56.0,-99.9,-100.00,East,100,7.0,-999.0,-999,-99.99,,,-99.99,,2013-02-10 12:00:00,
2013-02-10 07:42:00,56.0,-99.9,-100.00,East,100,7.0,-999.0,-999,-99.99,,,-99.99,,2013-02-10 12:42:00,
2013-02-10 07:52:00,56.0,-99.9,-100.00,East,100,7.0,-999.0,-999,-99.99,,,-99.99,,2013-02-10 12:52:00,
2013-02-10 10:00:00,55.0,-99.9,-100.00,ENE,60,16.0,-999.0,-999,-99.99,,,-99.99,,2013-02-10 15:00:00,
2013-02-10 10:32:00,55.0,-99.9,-100.00,ENE,60,16.0,-999.0,-999,-99.99,,,-99.99,,2013-02-10 15:32:00,
2013-02-10 10:42:00,55.0,-99.9,-100.00,ENE,60,16.0,-999.0,-999,-99.99,,,-99.99,,2013-02-10 15:42:00,
2013-02-10 10:52:00,55.0,-99.9,-100.00,ENE,60,16.0,-999.0,-999,-99.99,,,-99.99,,2013-02-10 15:52:00,
2013-02-10 11:00:00,56.0,-99.9,-100.00,ENE,70,13.0,-999.0,-999,-99.99,,,-99.99,,2013-02-10 16:00:00,
2013-02-10 11:42:00,56.0,-99.9,-100.00,ENE,70,13.0,-999.0,-999,-99.99,,,-99.99,,2013-02-10 16:42:00,
2013-02-10 11:52:00,56.0,-99.9,-100.00,ENE,70,13.0,-999.0,-999,-99.99,,,-99.99,,2013-02-10 16:52:00,
2013-02-10 13:00:00,56.0,-99.9,-100.00,ENE,60,18.0,-999.0,-999,-99.99,,,-99.99,,2013-02-10 18:00:00,
2013-02-10 13:42:00,56.0,-99.9,-100.00,ENE,60,18.0,-999.0,-999,-99.99,,,-99.99,,2013-02-10 18:42:00,
2013-02-10 13:52:00,56.0,-99.9,-100.00,ENE,60,18.0,-999.0,-999,-99.99,,,-99.99,,2013-02-10 18:52:00,
2013-02-10 16:00:00,57.0,-99.9,-100.00,East,80,13.0,-999.0,-999,-99.99,,,-99.99,,2013-02-10 21:00:00,
2013-02-10 16:42:00,57.0,-99.9,-100.00,East,80,13.0,-999.0,-999,-99.99,,,-99.99,,2013-02-10 21:42:00,
2013-02-10 16:52:00,57.0,-99.9,-100.00,East,80,13.0,-999.0,-999,-99.99,,,-99.99,,2013-02-10 21:52:00,
2013-02-10 19:00:00,58.0,-99.9,-100.00,South,170,9.0,-999.0,-999,-99.99,,,-99.99,,2013-02-11 00:00:00,
2013-02-10 19:42:00,58.0,-99.9,-100.00,South,170,9.0,-999.0,-999,-99.99,,,-99.99,,2013-02-11 00:42:00,
2013-02-10 19:52:00,58.0,-99.9,-100.00,South,170,9.0,-999.0,-999,-99.99,,,-99.99,,2013-02-11 00:52:00,
2013-02-10 21:00:00,60.0,-99.9,-100.00,South,170,11.0,-999.0,-999,-99.99,,,-99.99,,2013-02-11 02:00:00,
2013-02-10 21:42:00,60.0,-99.9,-100.00,South,170,11.0,-999.0,-999,-99.99,,,-99.99,,2013-02-11 02:42:00,
2013-02-10 21:52:00,60.0,-99.9,-100.00,South,170,11.0,-999.0,-999,-99.99,,,-99.99,,2013-02-11 02:52:00,
2013-02-10 22:00:00,59.0,-99.9,-100.00,South,170,11.0,-999.0,-999,-99.99,,,-99.99,,2013-02-11 03:00:00,
2013-02-10 22:42:00,59.0,-99.9,-100.00,South,170,11.0,-999.0,-999,-99.99,,,-99.99,,2013-02-11 03:42:00,
2013-02-10 22:52:00,59.0,-99.9,-100.00,South,170,11.0,-999.0,-999,-99.99,,,-99.99,,2013-02-11 03:52:00,
2013-02-10 23:00:00,59.0,-99.9,-100.00,South,170,7.0,-999.0,-999,-99.99,,,-99.99,,2013-02-11 04:00:00,
2013-02-10 23:42:00,59.0,-99.9,-100.00,South,170,7.0,-999.0,-999,-99.99,,,-99.99,,2013-02-11 04:42:00,
2013-02-10 23:52:00,59.0,-99.9,-100.00,South,170,7.0,-999.0,-999,-99.99,,,-99.99,,2013-02-11 04:52:00,